createdAt,value
2022-10-17T00:00:36.920Z,10.20
2022-10-17T00:03:03.996Z,10.13
2022-10-17T00:05:30.599Z,11.10
2022-10-17T00:07:57.822Z,9.33
2022-10-17T00:10:24.778Z,9.73
2022-10-17T00:12:52.151Z,9.50
2022-10-17T00:15:22.609Z,9.07
2022-10-17T00:17:49.494Z,9.57
2022-10-17T00:20:16.426Z,10.17
2022-10-17T00:22:43.890Z,7.90
2022-10-17T00:25:11.366Z,7.13
2022-10-17T00:27:39.592Z,8.17
2022-10-17T00:30:09.940Z,7.37
2022-10-17T00:32:36.730Z,7.40
2022-10-17T00:35:04.219Z,6.90
2022-10-17T00:37:31.458Z,7.60
2022-10-17T00:39:58.282Z,6.57
2022-10-17T00:42:26.361Z,6.63
2022-10-17T00:45:17.693Z,7.90
2022-10-17T00:47:48.112Z,7.50
2022-10-17T00:50:15.298Z,7.17
2022-10-17T00:52:42.798Z,6.67
2022-10-17T00:55:14.520Z,5.83
2022-10-17T00:57:42.560Z,6.87
2022-10-17T01:00:10.834Z,7.13
2022-10-17T01:02:38.973Z,7.47
2022-10-17T01:05:06.988Z,6.03
2022-10-17T01:07:37.184Z,6.03
2022-10-17T01:10:06.023Z,6.23
2022-10-17T01:12:40.850Z,6.97
2022-10-17T01:15:13.398Z,6.30
2022-10-17T01:17:48.164Z,6.07
2022-10-17T01:21:00.027Z,5.80
2022-10-17T01:23:47.946Z,6.60
2022-10-17T01:26:22.674Z,6.30
2022-10-17T01:29:20.462Z,6.00
2022-10-17T01:31:52.305Z,5.53
2022-10-17T01:34:23.809Z,5.57
2022-10-17T01:36:56.155Z,6.00
2022-10-17T01:39:29.980Z,5.77
2022-10-17T01:42:01.964Z,5.77
2022-10-17T01:44:37.558Z,5.53
2022-10-17T01:47:08.654Z,5.30
2022-10-17T01:49:37.285Z,5.20
2022-10-17T01:52:08.535Z,5.40
2022-10-17T01:54:39.797Z,5.83
2022-10-17T01:57:11.046Z,5.20
2022-10-17T01:59:41.207Z,5.77
2022-10-17T02:02:09.731Z,5.67
2022-10-17T02:04:36.938Z,5.17
2022-10-17T02:07:07.255Z,5.63
2022-10-17T02:09:35.313Z,5.30
2022-10-17T02:12:15.656Z,5.63
2022-10-17T02:14:53.754Z,5.80
2022-10-17T02:17:35.030Z,4.73
2022-10-17T02:20:09.984Z,5.20
2022-10-17T02:22:41.524Z,5.37
2022-10-17T02:25:14.967Z,5.80
2022-10-17T02:27:45.361Z,5.00
2022-10-17T02:30:15.329Z,5.30
2022-10-17T02:32:50.437Z,5.47
2022-10-17T02:35:19.436Z,5.83
2022-10-17T02:37:47.945Z,5.80
2022-10-17T02:40:18.007Z,5.23
2022-10-17T02:42:45.868Z,4.73
2022-10-17T02:45:14.335Z,5.13
2022-10-17T02:47:49.527Z,4.77
2022-10-17T02:50:16.314Z,5.20
2022-10-17T02:52:49.389Z,5.43
2022-10-17T02:55:30.332Z,5.07
2022-10-17T02:58:00.456Z,4.40
2022-10-17T03:00:28.671Z,5.00
2022-10-17T03:02:55.976Z,5.03
2022-10-17T03:05:25.162Z,5.07
2022-10-17T03:07:52.625Z,5.43
2022-10-17T03:10:19.496Z,5.13
2022-10-17T03:12:46.092Z,4.80
2022-10-17T03:15:13.478Z,4.93
2022-10-17T03:17:40.333Z,5.37
2022-10-17T03:20:08.260Z,5.43
2022-10-17T03:22:34.847Z,5.33
2022-10-17T03:25:01.447Z,6.10
2022-10-17T03:27:28.245Z,4.97
2022-10-17T03:29:55.128Z,4.80
2022-10-17T03:32:21.680Z,5.07
2022-10-17T03:34:48.244Z,4.83
2022-10-17T03:37:15.534Z,4.80
2022-10-17T03:39:42.064Z,4.80
2022-10-17T03:42:08.710Z,4.97
2022-10-17T03:44:35.391Z,5.50
2022-10-17T03:47:01.999Z,5.80
2022-10-17T03:49:28.659Z,5.30
2022-10-17T03:51:55.262Z,6.07
2022-10-17T03:54:22.517Z,5.63
2022-10-17T03:56:49.134Z,5.20
2022-10-17T03:59:16.167Z,5.20
2022-10-17T04:01:43.380Z,5.30
2022-10-17T04:04:10.407Z,4.80
2022-10-17T04:06:37.651Z,5.23
2022-10-17T04:09:05.268Z,5.30
2022-10-17T04:11:32.742Z,5.37
2022-10-17T04:13:59.477Z,5.60
2022-10-17T04:16:26.787Z,5.57
2022-10-17T04:18:54.996Z,4.90
2022-10-17T04:21:22.210Z,5.70
2022-10-17T04:23:52.298Z,5.10
2022-10-17T04:26:18.897Z,5.13
2022-10-17T04:28:46.160Z,5.40
2022-10-17T04:31:14.128Z,5.37
2022-10-17T04:33:41.714Z,5.50
2022-10-17T04:36:11.560Z,5.23
2022-10-17T04:38:38.622Z,6.17
2022-10-17T04:41:08.048Z,5.53
2022-10-17T04:43:37.075Z,6.13
2022-10-17T04:46:06.672Z,6.03
2022-10-17T04:48:33.529Z,5.90
2022-10-17T04:51:01.491Z,6.77
2022-10-17T04:53:30.272Z,5.97
2022-10-17T04:55:56.817Z,5.87
2022-10-17T04:58:23.559Z,6.27
2022-10-17T05:00:50.177Z,5.47
2022-10-17T05:03:17.567Z,6.20
2022-10-17T05:05:44.171Z,6.83
2022-10-17T05:08:11.532Z,6.27
2022-10-17T05:10:39.437Z,6.83
2022-10-17T05:13:06.010Z,5.60
2022-10-17T05:15:32.643Z,6.73
2022-10-17T05:17:59.478Z,7.33
2022-10-17T05:20:27.463Z,6.87
2022-10-17T05:22:54.638Z,6.97
2022-10-17T05:25:21.712Z,6.60
2022-10-17T05:27:48.474Z,7.90
2022-10-17T05:30:16.456Z,8.03
2022-10-17T05:32:44.303Z,7.07
2022-10-17T05:35:10.971Z,8.13
2022-10-17T05:37:38.224Z,7.07
2022-10-17T05:40:05.628Z,7.57
2022-10-17T05:42:32.791Z,7.70
2022-10-17T05:44:59.609Z,8.00
2022-10-17T05:47:26.286Z,8.23
2022-10-17T05:49:56.813Z,8.00
2022-10-17T05:52:23.407Z,8.07
2022-10-17T05:54:50.655Z,8.33
2022-10-17T05:57:17.255Z,7.97
2022-10-17T05:59:43.893Z,8.27
2022-10-17T06:02:13.799Z,8.27
2022-10-17T06:04:44.762Z,9.17
2022-10-17T06:07:13.171Z,8.33
2022-10-17T06:09:39.746Z,8.60
2022-10-17T06:12:07.070Z,8.07
2022-10-17T06:14:33.907Z,8.60
2022-10-17T06:17:00.790Z,8.27
2022-10-17T06:19:27.575Z,8.00
2022-10-17T06:21:54.613Z,7.70
2022-10-17T06:24:21.251Z,9.57
2022-10-17T06:26:49.148Z,8.23
2022-10-17T06:29:16.533Z,7.60
2022-10-17T06:31:43.157Z,7.73
2022-10-17T06:34:09.739Z,7.33
2022-10-17T06:36:36.326Z,7.13
2022-10-17T06:39:03.135Z,8.13
2022-10-17T06:41:29.715Z,7.23
2022-10-17T06:43:56.284Z,7.63
2022-10-17T06:46:26.008Z,7.17
2022-10-17T06:48:52.642Z,7.07
2022-10-17T06:51:19.183Z,6.73
2022-10-17T06:53:46.405Z,6.97
2022-10-17T06:56:13.000Z,6.83
2022-10-17T06:58:40.355Z,7.60
2022-10-17T07:03:42.835Z,7.17
2022-10-17T07:06:10.515Z,7.23
2022-10-17T07:08:43.245Z,6.50
2022-10-17T07:11:10.409Z,7.47
2022-10-17T07:13:39.280Z,7.50
2022-10-17T07:16:06.923Z,7.63
2022-10-17T07:18:33.689Z,7.20
2022-10-17T07:21:01.065Z,7.23
2022-10-17T07:23:27.769Z,7.20
2022-10-17T07:25:59.523Z,7.17
2022-10-17T07:28:26.251Z,6.60
2022-10-17T07:30:54.469Z,6.90
2022-10-17T07:33:21.796Z,6.90
2022-10-17T07:35:52.605Z,7.40
2022-10-17T07:38:19.884Z,6.17
2022-10-17T07:40:53.029Z,6.70
2022-10-17T07:43:19.670Z,7.23
2022-10-17T07:45:46.282Z,6.90
2022-10-17T07:48:12.847Z,6.30
2022-10-17T07:50:39.586Z,6.83
2022-10-17T07:53:06.199Z,5.73
2022-10-17T07:55:33.396Z,6.70
2022-10-17T07:58:00.085Z,5.90
2022-10-17T08:00:27.140Z,5.83
2022-10-17T08:02:53.805Z,5.80
2022-10-17T08:05:20.537Z,5.97
2022-10-17T08:07:47.076Z,5.77
2022-10-17T08:10:15.138Z,5.83
2022-10-17T08:12:42.866Z,5.00
2022-10-17T08:15:10.726Z,5.63
2022-10-17T08:17:38.532Z,4.93
2022-10-17T08:20:07.663Z,4.37
2022-10-17T08:22:34.682Z,5.30
2022-10-17T08:25:01.275Z,5.03
2022-10-17T08:27:28.240Z,4.70
2022-10-17T08:29:55.481Z,5.17
2022-10-17T08:32:25.100Z,4.93
2022-10-17T08:34:52.392Z,4.57
2022-10-17T08:37:19.478Z,4.67
2022-10-17T08:39:46.143Z,4.80
2022-10-17T08:42:36.258Z,4.37
2022-10-17T08:45:15.667Z,4.70
2022-10-17T08:47:45.382Z,4.57
2022-10-17T08:50:17.986Z,3.93
2022-10-17T08:52:48.961Z,4.50
2022-10-17T08:55:17.306Z,4.23
2022-10-17T08:57:44.118Z,3.90
2022-10-17T09:00:18.400Z,3.90
2022-10-17T09:02:56.172Z,4.20
2022-10-17T09:05:47.094Z,3.90
2022-10-17T09:08:28.771Z,4.50
2022-10-17T09:10:59.847Z,4.13
2022-10-17T09:13:43.559Z,4.20
2022-10-17T09:16:36.614Z,3.87
2022-10-17T09:19:09.676Z,3.40
2022-10-17T09:21:43.002Z,4.00
2022-10-17T09:24:16.160Z,3.50
2022-10-17T09:26:45.413Z,3.72
2022-10-17T09:29:18.742Z,3.93
2022-10-17T09:31:54.600Z,3.93
2022-10-17T09:34:29.282Z,4.20
2022-10-17T09:36:58.284Z,3.70
2022-10-17T09:39:28.535Z,3.90
2022-10-17T09:41:56.915Z,4.67
2022-10-17T09:44:25.869Z,3.50
2022-10-17T09:47:17.268Z,3.37
2022-10-17T09:49:45.730Z,3.67
2022-10-17T09:52:18.081Z,3.30
2022-10-17T09:54:47.458Z,3.33
2022-10-17T09:57:15.918Z,3.27
2022-10-17T09:59:44.725Z,3.05
2022-10-17T10:02:18.778Z,3.10
2022-10-17T10:05:08.534Z,2.90
2022-10-17T10:07:39.466Z,3.22
2022-10-17T10:10:08.451Z,3.13
2022-10-17T10:12:38.105Z,3.35
2022-10-17T10:15:32.212Z,3.47
2022-10-17T10:17:59.872Z,3.00
2022-10-17T10:20:30.986Z,3.30
2022-10-17T10:23:17.658Z,3.15
2022-10-17T10:25:54.012Z,2.90
2022-10-17T10:28:24.791Z,2.90
2022-10-17T10:30:56.244Z,3.15
2022-10-17T10:33:28.984Z,3.35
2022-10-17T10:36:02.788Z,3.30
2022-10-17T10:38:32.627Z,2.95
2022-10-17T10:41:04.127Z,3.22
2022-10-17T10:43:35.476Z,3.00
2022-10-17T10:46:05.823Z,3.30
2022-10-17T10:48:36.752Z,2.97
2022-10-17T10:51:09.318Z,3.90
2022-10-17T10:53:47.295Z,3.60
2022-10-17T10:56:19.495Z,2.58
2022-10-17T10:58:54.411Z,2.45
2022-10-17T11:01:27.922Z,2.97
2022-10-17T11:04:06.355Z,3.10
2022-10-17T11:06:36.829Z,3.25
2022-10-17T11:09:17.911Z,2.83
2022-10-17T11:11:49.783Z,2.55
2022-10-17T11:14:20.968Z,3.08
2022-10-17T11:16:53.824Z,2.70
2022-10-17T11:19:28.141Z,3.80
2022-10-17T11:22:04.810Z,3.60
2022-10-17T11:24:36.811Z,2.90
2022-10-17T11:27:05.917Z,3.00
2022-10-17T11:29:35.075Z,2.85
2022-10-17T11:32:05.685Z,2.88
2022-10-17T11:34:37.707Z,2.88
2022-10-17T11:37:10.861Z,2.72
2022-10-17T11:39:47.377Z,3.15
2022-10-17T11:42:18.366Z,3.00
2022-10-17T11:44:45.171Z,3.20
2022-10-17T11:47:20.540Z,3.08
2022-10-17T11:49:53.744Z,3.33
2022-10-17T11:52:55.372Z,3.47
2022-10-17T11:55:21.414Z,2.75
2022-10-17T11:58:01.454Z,3.53
2022-10-17T12:00:40.725Z,2.78
2022-10-17T12:03:22.305Z,2.90
2022-10-17T12:05:56.708Z,3.25
2022-10-17T12:08:31.570Z,3.40
2022-10-17T12:11:03.934Z,3.80
2022-10-17T12:13:54.012Z,4.55
2022-10-17T12:16:48.161Z,3.75
2022-10-17T12:19:25.934Z,8.13
2022-10-17T12:21:59.143Z,4.10
2022-10-17T12:24:41.723Z,3.63
2022-10-17T12:27:42.828Z,3.78
2022-10-17T12:30:22.329Z,3.47
2022-10-17T12:33:07.164Z,3.67
2022-10-17T12:35:36.192Z,3.85
2022-10-17T12:38:18.929Z,3.90
2022-10-17T12:40:50.742Z,3.42
2022-10-17T12:43:39.728Z,4.00
2022-10-17T12:46:10.206Z,3.40
2022-10-17T12:48:59.846Z,3.80
2022-10-17T12:51:37.596Z,3.88
2022-10-17T12:54:12.076Z,3.25
2022-10-17T12:56:43.847Z,3.20
2022-10-17T12:59:56.623Z,3.42
2022-10-17T13:02:28.031Z,3.65
2022-10-17T13:05:14.074Z,3.22
2022-10-17T13:07:43.739Z,3.00
2022-10-17T13:10:22.520Z,3.05
2022-10-17T13:12:50.660Z,3.05
2022-10-17T13:15:19.679Z,2.90
2022-10-17T13:17:54.813Z,3.08
2022-10-17T13:20:28.871Z,3.53
2022-10-17T13:22:58.062Z,3.70
2022-10-17T13:25:26.972Z,3.53
2022-10-17T13:28:06.180Z,3.50
2022-10-17T13:30:36.723Z,3.55
2022-10-17T13:33:15.670Z,3.25
2022-10-17T13:35:59.485Z,2.40
2022-10-17T13:38:31.419Z,3.13
2022-10-17T13:41:06.059Z,3.30
2022-10-17T13:43:44.146Z,3.35
2022-10-17T13:46:36.751Z,3.45
2022-10-17T13:49:12.266Z,2.90
2022-10-17T13:51:43.469Z,3.38
2022-10-17T13:54:18.809Z,4.95
2022-10-17T13:56:46.149Z,3.45
2022-10-17T13:59:23.233Z,3.67
2022-10-17T14:01:51.716Z,3.75
2022-10-17T14:04:20.404Z,2.85
2022-10-17T14:06:51.219Z,3.20
2022-10-17T14:09:22.554Z,2.83
2022-10-17T14:12:00.345Z,2.60
2022-10-17T14:14:28.262Z,2.58
2022-10-17T14:16:55.173Z,2.63
2022-10-17T14:19:25.941Z,2.90
2022-10-17T14:21:54.197Z,3.05
2022-10-17T14:24:30.724Z,3.55
2022-10-17T14:26:59.779Z,2.50
2022-10-17T14:29:28.353Z,3.38
2022-10-17T14:32:12.647Z,3.45
2022-10-17T14:34:40.801Z,2.70
2022-10-17T14:37:11.949Z,3.17
2022-10-17T14:39:39.428Z,2.88
2022-10-17T14:42:06.679Z,3.45
2022-10-17T14:44:35.173Z,2.83
2022-10-17T14:47:30.433Z,2.78
2022-10-17T14:50:01.501Z,3.50
2022-10-17T14:52:30.783Z,3.28
2022-10-17T14:54:59.199Z,2.95
2022-10-17T14:57:40.226Z,3.17
2022-10-17T15:00:08.254Z,4.07
2022-10-17T15:02:35.474Z,3.17
2022-10-17T15:05:02.107Z,3.33
2022-10-17T15:07:29.073Z,3.88
2022-10-17T15:09:55.668Z,3.58
2022-10-17T15:12:24.638Z,3.85
2022-10-17T15:14:52.571Z,3.63
2022-10-17T15:17:21.931Z,4.72
2022-10-17T15:19:49.776Z,5.28
2022-10-17T15:22:17.484Z,3.63
2022-10-17T15:24:45.448Z,4.10
2022-10-17T15:27:16.626Z,3.35
2022-10-17T15:29:43.361Z,3.45
2022-10-17T15:32:10.702Z,4.53
2022-10-17T15:34:37.331Z,3.88
2022-10-17T15:37:05.521Z,4.80
2022-10-17T15:39:33.679Z,3.88
2022-10-17T15:42:00.295Z,3.72
2022-10-17T15:44:28.237Z,4.18
2022-10-17T15:46:55.937Z,4.75
2022-10-17T15:49:23.331Z,4.35
2022-10-17T15:51:55.142Z,3.63
2022-10-17T15:54:22.084Z,4.00
2022-10-17T15:56:53.422Z,3.70
2022-10-17T15:59:22.948Z,4.50
2022-10-17T16:01:50.054Z,4.43
2022-10-17T16:04:17.814Z,4.35
2022-10-17T16:06:45.132Z,5.03
2022-10-17T16:09:11.797Z,4.60
2022-10-17T16:11:40.552Z,7.00
2022-10-17T16:14:11.089Z,4.82
2022-10-17T16:16:38.926Z,5.22
2022-10-17T16:19:06.138Z,5.00
2022-10-17T16:21:34.829Z,4.95
2022-10-17T16:24:03.421Z,4.47
2022-10-17T16:26:30.342Z,4.28
2022-10-17T16:29:01.926Z,4.57
2022-10-17T16:31:30.855Z,4.57
2022-10-17T16:33:59.179Z,5.07
2022-10-17T16:36:26.157Z,4.28
2022-10-17T16:38:53.590Z,4.70
2022-10-17T16:41:23.395Z,5.00
2022-10-17T16:43:51.124Z,6.05
2022-10-17T16:46:18.843Z,6.47
2022-10-17T16:48:46.129Z,5.93
2022-10-17T16:51:14.295Z,6.63
2022-10-17T16:53:43.102Z,6.25
2022-10-17T16:56:11.686Z,6.53
2022-10-17T16:58:39.216Z,6.40
2022-10-17T17:01:09.154Z,6.93
2022-10-17T17:03:36.631Z,6.03
2022-10-17T17:06:04.195Z,7.43
2022-10-17T17:08:31.282Z,6.80
2022-10-17T17:10:58.185Z,7.07
2022-10-17T17:13:25.104Z,5.80
2022-10-17T17:15:54.201Z,5.50
2022-10-17T17:18:20.876Z,6.78
2022-10-17T17:20:47.498Z,7.00
2022-10-17T17:23:16.028Z,7.80
2022-10-17T17:25:44.552Z,8.23
2022-10-17T17:28:14.469Z,9.00
2022-10-17T17:30:41.069Z,8.53
2022-10-17T17:33:08.671Z,7.13
2022-10-17T17:35:38.329Z,6.87
2022-10-17T17:38:06.851Z,7.10
2022-10-17T17:40:34.319Z,9.07
2022-10-17T17:45:28.030Z,8.27
2022-10-17T17:47:54.690Z,8.70
2022-10-17T17:50:21.991Z,7.60
2022-10-17T17:52:50.473Z,7.87
2022-10-17T17:55:17.281Z,8.77
2022-10-17T17:57:43.983Z,8.53
2022-10-17T18:00:12.167Z,8.93
2022-10-17T18:02:42.196Z,8.83
2022-10-17T18:05:12.611Z,7.43
2022-10-17T18:07:40.162Z,8.27
2022-10-17T18:10:08.196Z,7.67
2022-10-17T18:12:35.271Z,7.30
2022-10-17T18:15:02.612Z,7.10
2022-10-17T18:17:29.355Z,6.80
2022-10-17T18:19:56.012Z,8.13
2022-10-17T18:22:22.724Z,7.73
2022-10-17T18:24:50.084Z,8.20
2022-10-17T18:27:17.023Z,9.73
2022-10-17T18:29:45.141Z,9.10
2022-10-17T18:32:11.836Z,9.17
2022-10-17T18:34:38.468Z,10.27
2022-10-17T18:37:05.370Z,15.73
2022-10-17T18:39:32.032Z,16.00
2022-10-17T18:41:59.984Z,12.60
2022-10-17T18:44:26.794Z,9.10
2022-10-17T18:46:53.535Z,8.03
2022-10-17T18:49:22.466Z,8.10
2022-10-17T18:51:49.566Z,9.23
2022-10-17T18:54:20.570Z,6.97
2022-10-17T18:56:51.493Z,7.10
2022-10-17T18:59:19.624Z,7.87
2022-10-17T19:01:46.848Z,7.87
2022-10-17T19:04:14.152Z,7.63
2022-10-17T19:06:42.264Z,7.63
2022-10-17T19:09:10.570Z,7.30
2022-10-17T19:11:41.504Z,7.50
2022-10-17T19:14:12.490Z,8.93
2022-10-17T19:16:41.878Z,8.43
2022-10-17T19:19:15.434Z,7.47
2022-10-17T19:21:42.484Z,9.20
2022-10-17T19:24:15.107Z,8.93
2022-10-17T19:26:42.482Z,8.57
2022-10-17T19:29:10.221Z,8.77
2022-10-17T19:31:37.125Z,8.53
2022-10-17T19:34:05.263Z,8.87
2022-10-17T19:36:34.145Z,9.87
2022-10-17T19:39:02.896Z,9.23
2022-10-17T19:41:30.399Z,9.97
2022-10-17T19:43:57.335Z,10.30
2022-10-17T19:46:26.080Z,10.67
2022-10-17T19:48:53.488Z,10.40
2022-10-17T19:51:31.183Z,9.83
2022-10-17T19:54:00.080Z,9.37
2022-10-17T19:56:28.341Z,9.57
2022-10-17T19:58:56.375Z,9.70
2022-10-17T20:01:25.144Z,9.67
2022-10-17T20:03:52.509Z,9.30
2022-10-17T20:06:21.420Z,9.87
2022-10-17T20:08:48.650Z,9.70
2022-10-17T20:11:18.094Z,10.17
2022-10-17T20:13:45.069Z,10.43
2022-10-17T20:16:14.751Z,10.33
2022-10-17T20:18:41.667Z,9.70
2022-10-17T20:21:11.065Z,8.93
2022-10-17T20:23:38.848Z,9.37
2022-10-17T20:26:25.513Z,10.30
2022-10-17T20:28:55.644Z,11.07
2022-10-17T20:31:23.280Z,10.43
2022-10-17T20:33:54.794Z,11.13
2022-10-17T20:36:22.736Z,10.47
2022-10-17T20:38:53.869Z,10.60
2022-10-17T20:41:20.659Z,10.40
2022-10-17T20:43:49.330Z,11.03
2022-10-17T20:46:23.555Z,10.43
2022-10-17T20:49:02.122Z,11.83
2022-10-17T20:51:28.715Z,10.20
2022-10-17T20:56:30.124Z,10.60
2022-10-17T20:59:00.454Z,11.20
2022-10-17T21:01:28.522Z,11.90
2022-10-17T21:03:55.138Z,11.03
2022-10-17T21:06:23.140Z,11.03
2022-10-17T21:08:51.507Z,11.67
2022-10-17T21:11:20.649Z,11.03
2022-10-17T21:13:53.014Z,11.33
2022-10-17T21:16:19.852Z,10.87
2022-10-17T21:18:48.602Z,10.93
2022-10-17T21:21:17.398Z,10.90
2022-10-17T21:23:46.967Z,11.03
2022-10-17T21:26:14.754Z,10.83
2022-10-17T21:28:43.277Z,10.40
2022-10-17T21:31:12.872Z,9.97
2022-10-17T21:33:40.431Z,11.13
2022-10-17T21:36:08.020Z,10.43
2022-10-17T21:38:35.872Z,10.40
2022-10-17T21:41:03.897Z,9.77
2022-10-17T21:43:30.757Z,10.40
2022-10-17T21:46:01.411Z,10.47
2022-10-17T21:48:28.007Z,10.50
2022-10-17T21:50:57.037Z,10.57
2022-10-17T21:53:23.671Z,11.67
2022-10-17T21:55:50.303Z,11.03
2022-10-17T21:58:16.926Z,10.90
2022-10-17T22:00:43.678Z,11.23
2022-10-17T22:03:12.125Z,10.20
2022-10-17T22:05:38.788Z,11.20
2022-10-17T22:08:05.712Z,11.23
2022-10-17T22:10:32.359Z,9.87
2022-10-17T22:12:58.957Z,12.03
2022-10-17T22:15:25.628Z,10.70
2022-10-17T22:17:52.202Z,10.33
2022-10-17T22:20:19.437Z,10.77
2022-10-17T22:22:46.079Z,10.60
2022-10-17T22:25:12.739Z,10.70
2022-10-17T22:27:39.485Z,10.20
2022-10-17T22:30:08.577Z,11.17
2022-10-17T22:32:35.643Z,10.77
2022-10-17T22:35:02.262Z,9.93
2022-10-17T22:37:29.806Z,10.67
2022-10-17T22:39:56.558Z,9.93
2022-10-17T22:42:23.284Z,11.63
2022-10-17T22:44:49.888Z,11.20
2022-10-17T22:47:16.498Z,11.47
2022-10-17T22:49:43.215Z,10.67
2022-10-17T22:52:10.037Z,11.50
2022-10-17T22:54:37.296Z,10.93
2022-10-17T22:57:03.980Z,10.23
2022-10-17T22:59:30.570Z,11.00
2022-10-17T23:01:57.357Z,10.93
2022-10-17T23:04:24.099Z,11.33
2022-10-17T23:06:50.769Z,11.57
2022-10-17T23:09:17.459Z,10.17
2022-10-17T23:11:44.890Z,10.97
2022-10-17T23:14:11.467Z,10.63
2022-10-17T23:16:38.148Z,11.63
2022-10-17T23:19:04.746Z,11.23
2022-10-17T23:21:31.448Z,11.03
2022-10-17T23:23:58.062Z,11.33
2022-10-17T23:26:24.650Z,11.73
2022-10-17T23:28:54.267Z,11.57
2022-10-17T23:31:21.850Z,11.90
2022-10-17T23:33:49.692Z,11.77
2022-10-17T23:36:18.205Z,11.23
2022-10-17T23:38:46.103Z,12.23
2022-10-17T23:41:13.416Z,12.53
2022-10-17T23:43:40.264Z,12.37
2022-10-17T23:46:07.865Z,13.30
2022-10-17T23:48:34.602Z,13.27
2022-10-17T23:51:01.137Z,12.87
2022-10-17T23:53:27.729Z,12.83
2022-10-17T23:55:54.344Z,12.60
2022-10-17T23:58:21.034Z,12.77
